sensor_id;sensor_type;location;lat;lon;timestamp;pressure;altitude;pressure_sealevel;temperature;humidity
32320;BME280;19080;51.750;5.888;2023-07-24T00:00:14;100266.59;;;19.03;100.00
32320;BME280;19080;51.750;5.888;2023-07-24T00:02:41;100257.63;;;19.02;100.00
32320;BME280;19080;51.750;5.888;2023-07-24T00:05:08;100150.88;;;18.42;100.00
32320;BME280;19080;51.750;5.888;2023-07-24T00:07:34;100256.53;;;19.08;100.00
32320;BME280;19080;51.750;5.888;2023-07-24T00:10:01;100257.59;;;19.04;100.00
32320;BME280;19080;51.750;5.888;2023-07-24T00:12:28;100243.38;;;18.99;100.00
32320;BME280;19080;51.750;5.888;2023-07-24T00:14:55;100253.03;;;19.06;100.00
32320;BME280;19080;51.750;5.888;2023-07-24T00:17:21;100255.63;;;19.09;100.00
32320;BME280;19080;51.750;5.888;2023-07-24T00:19:48;100250.16;;;19.12;100.00
32320;BME280;19080;51.750;5.888;2023-07-24T00:22:15;100243.94;;;19.10;100.00
32320;BME280;19080;51.750;5.888;2023-07-24T00:24:42;100259.72;;;19.22;100.00
32320;BME280;19080;51.750;5.888;2023-07-24T00:27:08;100249.91;;;19.19;100.00
32320;BME280;19080;51.750;5.888;2023-07-24T00:29:35;100245.50;;;19.17;100.00
32320;BME280;19080;51.750;5.888;2023-07-24T00:32:02;100240.72;;;19.27;100.00
32320;BME280;19080;51.750;5.888;2023-07-24T00:34:28;100201.09;;;19.04;100.00
32320;BME280;19080;51.750;5.888;2023-07-24T00:36:55;100215.88;;;19.18;100.00
32320;BME280;19080;51.750;5.888;2023-07-24T00:39:23;100205.28;;;19.12;100.00
32320;BME280;19080;51.750;5.888;2023-07-24T00:41:50;100211.38;;;19.19;100.00
32320;BME280;19080;51.750;5.888;2023-07-24T00:44:18;100228.81;;;19.35;100.00
32320;BME280;19080;51.750;5.888;2023-07-24T00:46:45;100218.16;;;19.32;100.00
32320;BME280;19080;51.750;5.888;2023-07-24T00:49:12;100202.28;;;19.23;100.00
32320;BME280;19080;51.750;5.888;2023-07-24T00:51:39;100220.19;;;19.24;100.00
32320;BME280;19080;51.750;5.888;2023-07-24T00:54:07;100207.66;;;19.23;100.00
32320;BME280;19080;51.750;5.888;2023-07-24T00:56:34;100225.38;;;19.30;100.00
32320;BME280;19080;51.750;5.888;2023-07-24T00:59:01;100221.84;;;19.28;100.00
32320;BME280;19080;51.750;5.888;2023-07-24T01:01:28;100166.09;;;19.05;100.00
32320;BME280;19080;51.750;5.888;2023-07-24T01:03:56;100195.88;;;19.27;100.00
32320;BME280;19080;51.750;5.888;2023-07-24T01:06:24;100174.72;;;19.15;100.00
32320;BME280;19080;51.750;5.888;2023-07-24T01:08:51;100193.28;;;19.24;100.00
32320;BME280;19080;51.750;5.888;2023-07-24T01:11:24;100180.84;;;19.20;100.00
32320;BME280;19080;51.750;5.888;2023-07-24T01:14:04;100198.47;;;19.30;100.00
32320;BME280;19080;51.750;5.888;2023-07-24T01:16:37;100040.66;;;18.44;100.00
32320;BME280;19080;51.750;5.888;2023-07-24T01:27:32;100197.78;;;19.24;100.00
32320;BME280;19080;51.750;5.888;2023-07-24T01:29:58;100170.28;;;19.14;100.00
32320;BME280;19080;51.750;5.888;2023-07-24T01:32:25;100165.31;;;19.02;100.00
32320;BME280;19080;51.750;5.888;2023-07-24T01:34:52;100152.97;;;18.95;100.00
32320;BME280;19080;51.750;5.888;2023-07-24T01:37:20;100102.66;;;18.69;100.00
32320;BME280;19080;51.750;5.888;2023-07-24T01:39:49;100146.75;;;18.93;100.00
32320;BME280;19080;51.750;5.888;2023-07-24T01:42:16;100158.25;;;18.98;100.00
32320;BME280;19080;51.750;5.888;2023-07-24T01:44:43;100142.28;;;18.92;100.00
32320;BME280;19080;51.750;5.888;2023-07-24T01:47:10;100151.16;;;18.95;100.00
32320;BME280;19080;51.750;5.888;2023-07-24T01:49:37;100159.09;;;19.00;100.00
32320;BME280;19080;51.750;5.888;2023-07-24T01:52:04;100149.44;;;18.93;100.00
32320;BME280;19080;51.750;5.888;2023-07-24T01:54:30;100137.84;;;18.91;100.00
32320;BME280;19080;51.750;5.888;2023-07-24T01:56:57;100114.00;;;18.78;100.00
32320;BME280;19080;51.750;5.888;2023-07-24T01:59:24;100114.81;;;18.82;100.00
32320;BME280;19080;51.750;5.888;2023-07-24T02:01:50;100109.50;;;18.79;100.00
32320;BME280;19080;51.750;5.888;2023-07-24T02:04:17;100132.50;;;18.89;100.00
32320;BME280;19080;51.750;5.888;2023-07-24T02:06:46;100129.69;;;18.94;100.00
32320;BME280;19080;51.750;5.888;2023-07-24T02:09:13;100124.22;;;18.97;100.00
32320;BME280;19080;51.750;5.888;2023-07-24T02:11:39;100115.41;;;18.92;100.00
32320;BME280;19080;51.750;5.888;2023-07-24T02:14:06;100135.94;;;18.94;100.00
32320;BME280;19080;51.750;5.888;2023-07-24T02:16:33;100134.81;;;19.01;100.00
32320;BME280;19080;51.750;5.888;2023-07-24T02:19:00;100126.91;;;18.97;100.00
32320;BME280;19080;51.750;5.888;2023-07-24T02:21:26;100103.94;;;18.85;100.00
32320;BME280;19080;51.750;5.888;2023-07-24T02:23:54;100132.28;;;18.97;100.00
32320;BME280;19080;51.750;5.888;2023-07-24T02:26:20;100128.72;;;18.96;100.00
32320;BME280;19080;51.750;5.888;2023-07-24T02:28:47;100117.25;;;18.90;100.00
32320;BME280;19080;51.750;5.888;2023-07-24T02:31:13;100118.19;;;18.89;100.00
32320;BME280;19080;51.750;5.888;2023-07-24T02:33:40;100120.88;;;18.89;100.00
32320;BME280;19080;51.750;5.888;2023-07-24T02:36:07;99962.47;;;17.93;100.00
32320;BME280;19080;51.750;5.888;2023-07-24T02:38:34;100096.63;;;18.61;100.00
32320;BME280;19080;51.750;5.888;2023-07-24T02:41:01;100114.09;;;18.75;100.00
32320;BME280;19080;51.750;5.888;2023-07-24T02:43:27;100048.81;;;18.41;100.00
32320;BME280;19080;51.750;5.888;2023-07-24T02:45:54;100104.38;;;18.71;100.00
32320;BME280;19080;51.750;5.888;2023-07-24T02:48:22;100085.81;;;18.62;100.00
32320;BME280;19080;51.750;5.888;2023-07-24T02:50:51;100060.28;;;18.46;100.00
32320;BME280;19080;51.750;5.888;2023-07-24T02:53:17;100056.13;;;18.36;100.00
32320;BME280;19080;51.750;5.888;2023-07-24T02:55:44;100091.53;;;18.50;100.00
32320;BME280;19080;51.750;5.888;2023-07-24T02:58:12;100050.00;;;18.31;100.00
32320;BME280;19080;51.750;5.888;2023-07-24T03:00:40;100112.63;;;18.65;100.00
32320;BME280;19080;51.750;5.888;2023-07-24T03:03:06;100100.25;;;18.58;100.00
32320;BME280;19080;51.750;5.888;2023-07-24T03:05:34;100105.56;;;18.61;100.00
32320;BME280;19080;51.750;5.888;2023-07-24T03:08:01;99977.25;;;17.76;100.00
32320;BME280;19080;51.750;5.888;2023-07-24T03:10:29;100105.56;;;18.61;100.00
32320;BME280;19080;51.750;5.888;2023-07-24T03:12:56;100066.78;;;18.39;100.00
32320;BME280;19080;51.750;5.888;2023-07-24T03:15:22;100036.59;;;18.29;100.00
32320;BME280;19080;51.750;5.888;2023-07-24T03:17:49;100082.28;;;18.60;100.00
32320;BME280;19080;51.750;5.888;2023-07-24T03:20:18;100081.34;;;18.63;100.00
32320;BME280;19080;51.750;5.888;2023-07-24T03:22:45;100063.88;;;18.46;100.00
32320;BME280;19080;51.750;5.888;2023-07-24T03:25:12;100094.00;;;18.58;100.00
32320;BME280;19080;51.750;5.888;2023-07-24T03:27:39;100116.38;;;18.58;100.00
32320;BME280;19080;51.750;5.888;2023-07-24T03:30:06;100057.97;;;18.34;100.00
32320;BME280;19080;51.750;5.888;2023-07-24T03:32:33;100075.50;;;18.47;100.00
32320;BME280;19080;51.750;5.888;2023-07-24T03:35:00;100031.19;;;18.31;100.00
32320;BME280;19080;51.750;5.888;2023-07-24T03:37:27;100078.84;;;18.55;100.00
32320;BME280;19080;51.750;5.888;2023-07-24T03:39:54;100039.28;;;18.29;100.00
32320;BME280;19080;51.750;5.888;2023-07-24T03:42:25;100061.28;;;18.43;100.00
32320;BME280;19080;51.750;5.888;2023-07-24T03:44:53;100018.91;;;18.22;100.00
32320;BME280;19080;51.750;5.888;2023-07-24T03:47:20;100061.94;;;18.51;100.00
32320;BME280;19080;51.750;5.888;2023-07-24T03:49:47;100060.47;;;18.40;100.00
32320;BME280;19080;51.750;5.888;2023-07-24T03:52:13;100037.00;;;18.15;100.00
32320;BME280;19080;51.750;5.888;2023-07-24T03:54:40;100066.22;;;18.28;100.00
32320;BME280;19080;51.750;5.888;2023-07-24T03:57:06;100016.97;;;17.96;100.00
32320;BME280;19080;51.750;5.888;2023-07-24T03:59:33;100021.03;;;17.78;100.00
32320;BME280;19080;51.750;5.888;2023-07-24T04:02:00;100075.63;;;18.11;100.00
32320;BME280;19080;51.750;5.888;2023-07-24T04:04:27;100056.41;;;17.94;100.00
32320;BME280;19080;51.750;5.888;2023-07-24T04:06:54;100091.28;;;17.96;100.00
32320;BME280;19080;51.750;5.888;2023-07-24T04:09:20;100090.63;;;17.86;100.00
32320;BME280;19080;51.750;5.888;2023-07-24T04:11:47;100051.63;;;17.37;100.00
32320;BME280;19080;51.750;5.888;2023-07-24T04:14:13;100022.97;;;17.04;100.00
32320;BME280;19080;51.750;5.888;2023-07-24T04:16:40;100082.94;;;17.37;100.00
32320;BME280;19080;51.750;5.888;2023-07-24T04:19:07;100064.56;;;17.21;100.00
32320;BME280;19080;51.750;5.888;2023-07-24T04:21:35;100015.53;;;16.79;100.00
32320;BME280;19080;51.750;5.888;2023-07-24T04:24:02;100082.44;;;17.21;100.00
32320;BME280;19080;51.750;5.888;2023-07-24T04:26:28;100090.41;;;17.24;100.00
32320;BME280;19080;51.750;5.888;2023-07-24T04:28:56;100018.91;;;16.87;100.00
32320;BME280;19080;51.750;5.888;2023-07-24T04:31:22;100052.31;;;17.10;100.00
32320;BME280;19080;51.750;5.888;2023-07-24T04:33:49;100095.56;;;17.33;100.00
32320;BME280;19080;51.750;5.888;2023-07-24T04:36:16;100083.25;;;17.24;100.00
32320;BME280;19080;51.750;5.888;2023-07-24T04:38:43;100070.03;;;17.17;100.00
32320;BME280;19080;51.750;5.888;2023-07-24T04:41:12;100036.47;;;17.01;100.00
32320;BME280;19080;51.750;5.888;2023-07-24T04:43:39;100055.94;;;17.09;100.00
32320;BME280;19080;51.750;5.888;2023-07-24T04:46:06;99999.53;;;16.76;100.00
32320;BME280;19080;51.750;5.888;2023-07-24T04:48:32;100108.66;;;17.45;100.00
32320;BME280;19080;51.750;5.888;2023-07-24T04:50:59;100105.88;;;17.48;100.00
32320;BME280;19080;51.750;5.888;2023-07-24T04:53:26;100069.81;;;17.26;100.00
32320;BME280;19080;51.750;5.888;2023-07-24T04:55:52;100051.16;;;17.21;100.00
32320;BME280;19080;51.750;5.888;2023-07-24T04:58:19;100100.38;;;17.54;100.00
32320;BME280;19080;51.750;5.888;2023-07-24T05:00:45;100103.84;;;17.58;100.00
32320;BME280;19080;51.750;5.888;2023-07-24T05:03:12;100060.59;;;17.36;100.00
32320;BME280;19080;51.750;5.888;2023-07-24T05:05:39;100084.38;;;17.50;100.00
32320;BME280;19080;51.750;5.888;2023-07-24T05:08:11;100020.19;;;17.08;100.00
32320;BME280;19080;51.750;5.888;2023-07-24T05:10:37;99995.63;;;16.89;100.00
32320;BME280;19080;51.750;5.888;2023-07-24T05:13:04;100096.22;;;17.41;100.00
32320;BME280;19080;51.750;5.888;2023-07-24T05:15:31;100101.44;;;17.47;100.00
32320;BME280;19080;51.750;5.888;2023-07-24T05:17:57;100058.09;;;17.30;100.00
32320;BME280;19080;51.750;5.888;2023-07-24T05:20:24;100077.41;;;17.43;100.00
32320;BME280;19080;51.750;5.888;2023-07-24T05:22:51;100091.56;;;17.49;100.00
32320;BME280;19080;51.750;5.888;2023-07-24T05:25:17;100099.44;;;17.55;100.00
32320;BME280;19080;51.750;5.888;2023-07-24T05:27:44;100095.06;;;17.51;100.00
32320;BME280;19080;51.750;5.888;2023-07-24T05:30:11;100107.34;;;17.62;100.00
32320;BME280;19080;51.750;5.888;2023-07-24T05:32:38;100057.25;;;17.28;100.00
32320;BME280;19080;51.750;5.888;2023-07-24T05:35:05;100087.22;;;17.44;100.00
32320;BME280;19080;51.750;5.888;2023-07-24T05:37:31;100122.31;;;17.72;100.00
32320;BME280;19080;51.750;5.888;2023-07-24T05:39:58;100119.59;;;17.73;100.00
32320;BME280;19080;51.750;5.888;2023-07-24T05:42:25;100092.91;;;17.67;100.00
32320;BME280;19080;51.750;5.888;2023-07-24T05:44:51;100112.03;;;17.89;100.00
32320;BME280;19080;51.750;5.888;2023-07-24T05:47:18;100121.53;;;18.02;100.00
32320;BME280;19080;51.750;5.888;2023-07-24T05:49:44;100077.13;;;17.89;100.00
32320;BME280;19080;51.750;5.888;2023-07-24T05:52:11;100102.41;;;18.14;100.00
32320;BME280;19080;51.750;5.888;2023-07-24T05:54:38;100129.50;;;18.38;100.00
32320;BME280;19080;51.750;5.888;2023-07-24T05:57:05;100118.41;;;18.50;100.00
32320;BME280;19080;51.750;5.888;2023-07-24T05:59:32;100061.09;;;18.18;100.00
32320;BME280;19080;51.750;5.888;2023-07-24T06:01:58;100122.72;;;18.56;100.00
32320;BME280;19080;51.750;5.888;2023-07-24T06:04:25;99996.59;;;17.89;100.00
32320;BME280;19080;51.750;5.888;2023-07-24T06:06:52;100102.31;;;18.48;100.00
32320;BME280;19080;51.750;5.888;2023-07-24T06:09:19;100129.31;;;18.76;100.00
32320;BME280;19080;51.750;5.888;2023-07-24T06:11:47;100114.94;;;18.77;100.00
32320;BME280;19080;51.750;5.888;2023-07-24T06:14:14;100111.97;;;18.87;100.00
32320;BME280;19080;51.750;5.888;2023-07-24T06:16:40;99983.19;;;18.18;100.00
32320;BME280;19080;51.750;5.888;2023-07-24T06:19:07;100129.00;;;19.15;100.00
32320;BME280;19080;51.750;5.888;2023-07-24T06:21:34;100123.38;;;19.23;100.00
32320;BME280;19080;51.750;5.888;2023-07-24T06:24:01;100125.88;;;19.29;100.00
32320;BME280;19080;51.750;5.888;2023-07-24T06:26:27;100099.25;;;19.19;100.00
32320;BME280;19080;51.750;5.888;2023-07-24T06:28:54;100106.97;;;19.30;100.00
32320;BME280;19080;51.750;5.888;2023-07-24T06:31:21;100125.53;;;19.39;100.00
32320;BME280;19080;51.750;5.888;2023-07-24T06:33:48;100134.56;;;19.37;100.00
32320;BME280;19080;51.750;5.888;2023-07-24T06:36:14;100132.63;;;19.42;100.00
32320;BME280;19080;51.750;5.888;2023-07-24T06:38:41;100135.63;;;19.61;100.00
32320;BME280;19080;51.750;5.888;2023-07-24T06:41:09;100048.88;;;19.25;100.00
32320;BME280;19080;51.750;5.888;2023-07-24T06:43:35;100128.47;;;19.86;100.00
32320;BME280;19080;51.750;5.888;2023-07-24T06:46:02;100135.53;;;19.90;100.00
32320;BME280;19080;51.750;5.888;2023-07-24T06:48:29;100086.84;;;19.70;100.00
32320;BME280;19080;51.750;5.888;2023-07-24T06:50:55;100123.94;;;20.13;100.00
32320;BME280;19080;51.750;5.888;2023-07-24T06:53:22;100114.31;;;20.06;100.00
32320;BME280;19080;51.750;5.888;2023-07-24T06:55:48;100105.31;;;20.07;100.00
32320;BME280;19080;51.750;5.888;2023-07-24T06:58:15;100145.47;;;20.39;100.00
32320;BME280;19080;51.750;5.888;2023-07-24T07:00:42;100134.91;;;20.58;100.00
32320;BME280;19080;51.750;5.888;2023-07-24T07:03:08;100146.19;;;20.69;100.00
32320;BME280;19080;51.750;5.888;2023-07-24T07:05:35;100155.84;;;20.75;100.00
32320;BME280;19080;51.750;5.888;2023-07-24T07:08:02;100142.41;;;20.97;100.00
32320;BME280;19080;51.750;5.888;2023-07-24T07:10:30;100127.66;;;21.29;100.00
32320;BME280;19080;51.750;5.888;2023-07-24T07:12:57;100112.22;;;21.32;100.00
32320;BME280;19080;51.750;5.888;2023-07-24T07:15:23;100047.03;;;20.98;100.00
32320;BME280;19080;51.750;5.888;2023-07-24T07:17:50;100138.03;;;21.39;100.00
32320;BME280;19080;51.750;5.888;2023-07-24T07:20:17;100138.84;;;21.41;100.00
32320;BME280;19080;51.750;5.888;2023-07-24T07:22:44;100151.66;;;21.36;100.00
32320;BME280;19080;51.750;5.888;2023-07-24T07:25:10;100155.16;;;21.15;100.00
32320;BME280;19080;51.750;5.888;2023-07-24T07:27:37;100138.88;;;20.95;100.00
32320;BME280;19080;51.750;5.888;2023-07-24T07:30:04;100140.06;;;20.88;100.00
32320;BME280;19080;51.750;5.888;2023-07-24T07:32:31;100078.56;;;20.26;100.00
32320;BME280;19080;51.750;5.888;2023-07-24T07:34:58;100149.78;;;20.45;100.00
32320;BME280;19080;51.750;5.888;2023-07-24T07:37:24;100150.72;;;20.18;100.00
32320;BME280;19080;51.750;5.888;2023-07-24T07:39:51;100151.00;;;20.10;100.00
32320;BME280;19080;51.750;5.888;2023-07-24T07:42:18;100117.91;;;19.80;100.00
32320;BME280;19080;51.750;5.888;2023-07-24T07:44:46;100142.00;;;19.85;100.00
32320;BME280;19080;51.750;5.888;2023-07-24T07:47:12;100130.03;;;19.93;100.00
32320;BME280;19080;51.750;5.888;2023-07-24T07:49:39;100129.28;;;20.14;100.00
32320;BME280;19080;51.750;5.888;2023-07-24T07:52:06;100095.41;;;20.07;100.00
32320;BME280;19080;51.750;5.888;2023-07-24T07:54:33;100136.81;;;20.30;100.00
32320;BME280;19080;51.750;5.888;2023-07-24T07:56:59;100090.84;;;20.09;100.00
32320;BME280;19080;51.750;5.888;2023-07-24T07:59:27;100111.91;;;20.23;100.00
32320;BME280;19080;51.750;5.888;2023-07-24T08:01:53;100056.81;;;19.82;100.00
32320;BME280;19080;51.750;5.888;2023-07-24T08:04:20;100126.75;;;20.10;100.00
32320;BME280;19080;51.750;5.888;2023-07-24T08:06:47;100133.53;;;19.95;100.00
32320;BME280;19080;51.750;5.888;2023-07-24T08:09:13;100097.00;;;19.62;100.00
32320;BME280;19080;51.750;5.888;2023-07-24T08:11:40;100134.22;;;19.75;100.00
32320;BME280;19080;51.750;5.888;2023-07-24T08:14:06;100129.59;;;19.53;100.00
32320;BME280;19080;51.750;5.888;2023-07-24T08:16:33;100134.53;;;19.38;100.00
32320;BME280;19080;51.750;5.888;2023-07-24T08:19:00;100132.13;;;19.29;100.00
32320;BME280;19080;51.750;5.888;2023-07-24T08:21:27;100135.69;;;19.30;100.00
32320;BME280;19080;51.750;5.888;2023-07-24T08:23:54;100110.69;;;19.26;100.00
32320;BME280;19080;51.750;5.888;2023-07-24T08:26:20;100127.47;;;19.34;100.00
32320;BME280;19080;51.750;5.888;2023-07-24T08:28:47;100142.19;;;19.50;100.00
32320;BME280;19080;51.750;5.888;2023-07-24T08:31:13;100133.81;;;19.61;100.00
32320;BME280;19080;51.750;5.888;2023-07-24T08:33:40;100109.13;;;19.75;100.00
32320;BME280;19080;51.750;5.888;2023-07-24T08:36:08;100132.13;;;20.35;100.00
32320;BME280;19080;51.750;5.888;2023-07-24T08:38:35;100108.47;;;20.44;100.00
32320;BME280;19080;51.750;5.888;2023-07-24T08:41:03;100144.78;;;21.04;100.00
32320;BME280;19080;51.750;5.888;2023-07-24T08:43:30;100143.75;;;21.54;100.00
32320;BME280;19080;51.750;5.888;2023-07-24T08:45:59;100129.97;;;22.24;100.00
32320;BME280;19080;51.750;5.888;2023-07-24T08:48:34;100127.59;;;22.76;100.00
32320;BME280;19080;51.750;5.888;2023-07-24T08:51:09;100114.34;;;22.69;100.00
32320;BME280;19080;51.750;5.888;2023-07-24T08:53:37;100109.38;;;22.21;100.00
32320;BME280;19080;51.750;5.888;2023-07-24T08:56:06;100070.50;;;21.61;100.00
32320;BME280;19080;51.750;5.888;2023-07-24T08:58:34;100093.25;;;21.56;100.00
32320;BME280;19080;51.750;5.888;2023-07-24T09:01:03;100125.75;;;21.96;100.00
32320;BME280;19080;51.750;5.888;2023-07-24T09:03:31;100117.13;;;22.08;100.00
32320;BME280;19080;51.750;5.888;2023-07-24T09:05:59;100099.22;;;22.26;100.00
32320;BME280;19080;51.750;5.888;2023-07-24T09:08:35;100060.00;;;22.55;100.00
32320;BME280;19080;51.750;5.888;2023-07-24T09:11:03;100103.47;;;23.65;100.00
32320;BME280;19080;51.750;5.888;2023-07-24T09:13:31;100104.91;;;24.24;100.00
32320;BME280;19080;51.750;5.888;2023-07-24T09:15:58;100118.31;;;24.10;100.00
32320;BME280;19080;51.750;5.888;2023-07-24T09:18:42;100099.63;;;24.38;100.00
32320;BME280;19080;51.750;5.888;2023-07-24T09:21:10;100116.38;;;24.46;100.00
32320;BME280;19080;51.750;5.888;2023-07-24T09:23:38;100109.84;;;23.81;100.00
32320;BME280;19080;51.750;5.888;2023-07-24T09:26:09;100075.25;;;23.14;100.00
32320;BME280;19080;51.750;5.888;2023-07-24T09:28:36;100042.69;;;22.78;100.00
32320;BME280;19080;51.750;5.888;2023-07-24T09:31:03;100096.41;;;23.06;100.00
32320;BME280;19080;51.750;5.888;2023-07-24T09:33:39;100059.53;;;22.47;100.00
32320;BME280;19080;51.750;5.888;2023-07-24T09:36:07;99962.25;;;21.25;100.00
32320;BME280;19080;51.750;5.888;2023-07-24T09:38:38;100100.25;;;22.03;100.00
32320;BME280;19080;51.750;5.888;2023-07-24T09:41:06;100080.56;;;22.20;100.00
32320;BME280;19080;51.750;5.888;2023-07-24T09:43:33;100064.31;;;22.80;100.00
32320;BME280;19080;51.750;5.888;2023-07-24T09:46:07;100075.63;;;23.61;100.00
32320;BME280;19080;51.750;5.888;2023-07-24T09:48:34;100049.44;;;23.96;100.00
32320;BME280;19080;51.750;5.888;2023-07-24T09:51:11;100062.25;;;24.60;100.00
32320;BME280;19080;51.750;5.888;2023-07-24T09:53:43;100065.47;;;25.00;100.00
32320;BME280;19080;51.750;5.888;2023-07-24T09:56:10;100019.72;;;24.92;100.00
32320;BME280;19080;51.750;5.888;2023-07-24T09:58:38;100053.66;;;25.17;100.00
32320;BME280;19080;51.750;5.888;2023-07-24T10:01:07;100034.69;;;24.84;100.00
32320;BME280;19080;51.750;5.888;2023-07-24T10:06:22;100051.19;;;23.97;100.00
32320;BME280;19080;51.750;5.888;2023-07-24T10:08:50;100033.25;;;23.60;100.00
32320;BME280;19080;51.750;5.888;2023-07-24T10:11:17;100037.88;;;23.40;100.00
32320;BME280;19080;51.750;5.888;2023-07-24T10:13:45;100025.22;;;23.04;100.00
32320;BME280;19080;51.750;5.888;2023-07-24T10:16:12;99966.75;;;22.45;100.00
32320;BME280;19080;51.750;5.888;2023-07-24T10:18:46;100019.94;;;22.63;100.00
32320;BME280;19080;51.750;5.888;2023-07-24T10:21:13;100035.59;;;22.76;100.00
32320;BME280;19080;51.750;5.888;2023-07-24T10:23:44;99958.44;;;22.31;100.00
32320;BME280;19080;51.750;5.888;2023-07-24T10:26:13;100011.47;;;22.33;100.00
32320;BME280;19080;51.750;5.888;2023-07-24T10:28:42;100037.91;;;22.27;100.00
32320;BME280;19080;51.750;5.888;2023-07-24T10:31:25;100049.56;;;22.08;100.00
32320;BME280;19080;51.750;5.888;2023-07-24T10:33:54;100031.16;;;21.76;100.00
32320;BME280;19080;51.750;5.888;2023-07-24T10:36:22;100063.16;;;21.65;100.00
32320;BME280;19080;51.750;5.888;2023-07-24T10:38:54;100010.25;;;21.17;100.00
32320;BME280;19080;51.750;5.888;2023-07-24T10:41:21;99940.66;;;20.61;100.00
32320;BME280;19080;51.750;5.888;2023-07-24T10:43:49;100071.03;;;21.27;100.00
32320;BME280;19080;51.750;5.888;2023-07-24T10:46:20;100066.41;;;21.07;100.00
32320;BME280;19080;51.750;5.888;2023-07-24T10:48:50;100052.66;;;20.92;100.00
32320;BME280;19080;51.750;5.888;2023-07-24T10:51:18;100063.97;;;21.01;100.00
32320;BME280;19080;51.750;5.888;2023-07-24T10:53:48;99998.56;;;20.51;100.00
32320;BME280;19080;51.750;5.888;2023-07-24T10:56:16;99978.69;;;20.30;100.00
32320;BME280;19080;51.750;5.888;2023-07-24T10:58:43;100060.06;;;20.87;100.00
32320;BME280;19080;51.750;5.888;2023-07-24T11:01:10;100086.31;;;21.05;100.00
32320;BME280;19080;51.750;5.888;2023-07-24T11:03:42;100084.69;;;21.01;100.00
32320;BME280;19080;51.750;5.888;2023-07-24T11:06:13;99955.66;;;20.22;100.00
32320;BME280;19080;51.750;5.888;2023-07-24T11:08:40;100017.16;;;20.59;100.00
32320;BME280;19080;51.750;5.888;2023-07-24T11:11:07;100012.97;;;20.73;100.00
32320;BME280;19080;51.750;5.888;2023-07-24T11:13:34;100067.53;;;21.25;100.00
32320;BME280;19080;51.750;5.888;2023-07-24T11:16:06;100067.22;;;21.75;100.00
32320;BME280;19080;51.750;5.888;2023-07-24T11:18:44;100082.91;;;22.48;100.00
32320;BME280;19080;51.750;5.888;2023-07-24T11:21:20;100089.34;;;23.40;100.00
32320;BME280;19080;51.750;5.888;2023-07-24T11:23:52;100081.56;;;23.15;100.00
32320;BME280;19080;51.750;5.888;2023-07-24T11:26:23;100071.09;;;22.88;100.00
32320;BME280;19080;51.750;5.888;2023-07-24T11:28:52;100076.44;;;22.90;100.00
32320;BME280;19080;51.750;5.888;2023-07-24T11:31:19;99957.84;;;22.43;100.00
32320;BME280;19080;51.750;5.888;2023-07-24T11:33:47;100004.00;;;22.57;100.00
32320;BME280;19080;51.750;5.888;2023-07-24T11:36:15;99987.50;;;22.63;100.00
32320;BME280;19080;51.750;5.888;2023-07-24T11:38:45;100051.97;;;23.29;100.00
32320;BME280;19080;51.750;5.888;2023-07-24T11:41:12;100056.13;;;23.55;100.00
32320;BME280;19080;51.750;5.888;2023-07-24T11:43:46;100028.94;;;23.74;100.00
32320;BME280;19080;51.750;5.888;2023-07-24T11:46:23;100045.28;;;24.07;100.00
32320;BME280;19080;51.750;5.888;2023-07-24T11:48:50;100054.59;;;24.18;100.00
32320;BME280;19080;51.750;5.888;2023-07-24T11:51:26;100046.25;;;24.39;100.00
32320;BME280;19080;51.750;5.888;2023-07-24T11:54:08;100044.81;;;24.64;100.00
32320;BME280;19080;51.750;5.888;2023-07-24T11:56:42;100020.72;;;25.53;100.00
32320;BME280;19080;51.750;5.888;2023-07-24T11:59:15;100028.34;;;25.92;100.00
32320;BME280;19080;51.750;5.888;2023-07-24T12:01:48;99980.91;;;25.22;100.00
32320;BME280;19080;51.750;5.888;2023-07-24T12:04:15;100057.84;;;25.84;100.00
32320;BME280;19080;51.750;5.888;2023-07-24T12:06:43;100051.81;;;25.79;99.88
32320;BME280;19080;51.750;5.888;2023-07-24T12:09:13;100055.19;;;26.12;100.00
32320;BME280;19080;51.750;5.888;2023-07-24T12:11:41;100047.50;;;26.19;100.00
32320;BME280;19080;51.750;5.888;2023-07-24T12:14:13;99923.84;;;25.38;98.70
32320;BME280;19080;51.750;5.888;2023-07-24T12:16:40;100018.25;;;25.18;97.02
32320;BME280;19080;51.750;5.888;2023-07-24T12:19:06;99966.44;;;24.27;100.00
32320;BME280;19080;51.750;5.888;2023-07-24T12:21:33;100030.97;;;24.53;100.00
32320;BME280;19080;51.750;5.888;2023-07-24T12:24:00;100026.00;;;24.28;100.00
32320;BME280;19080;51.750;5.888;2023-07-24T12:26:26;100033.25;;;24.45;100.00
32320;BME280;19080;51.750;5.888;2023-07-24T12:28:54;100036.78;;;24.79;100.00
32320;BME280;19080;51.750;5.888;2023-07-24T12:31:21;99975.91;;;24.51;100.00
32320;BME280;19080;51.750;5.888;2023-07-24T12:33:48;100034.56;;;25.64;100.00
32320;BME280;19080;51.750;5.888;2023-07-24T12:36:14;100027.59;;;26.89;90.39
32320;BME280;19080;51.750;5.888;2023-07-24T12:38:41;100011.34;;;27.56;83.67
32320;BME280;19080;51.750;5.888;2023-07-24T12:41:08;100014.94;;;28.72;73.39
32320;BME280;19080;51.750;5.888;2023-07-24T12:43:35;99938.81;;;29.28;66.50
32320;BME280;19080;51.750;5.888;2023-07-24T12:46:01;99998.22;;;29.61;63.32
32320;BME280;19080;51.750;5.888;2023-07-24T12:48:28;100005.19;;;30.58;61.92
32320;BME280;19080;51.750;5.888;2023-07-24T12:50:57;100010.19;;;29.71;61.80
32320;BME280;19080;51.750;5.888;2023-07-24T12:53:26;99985.38;;;29.86;62.01